aviador You're here:

CWSA Decoded Metar

SABLE ISLAND in NS, CANADA
Report Time2018-01-17 06:21:00
UTC Time2018-01-17 06:39:24
Flight Rules mvfr MVFR
Wind360° at 07 kt
Visibility9999 m
Phenomena:N/A
Clouds:Overcast 019 Hf
Expected CloudBase > 400 ft AGL from Temp-Dew spread
Ceiling1,900 ft
Temp00°C (ISA -15)
Dew Point-1°C (93% RH)
AAT-4.6°C
QNH1030 hPa
Density Alt-2,320 ft
Elevation13 ft
Report Wrong Elevation
Raw Report
SPECI CWSA 170621Z AUTO 36007KT 9SM OVC019 00/M01 A3042 RMK TS/LTNG
TEMPO UNAVBL SLP302=

Extra information for CWSA:More info

Metar Taf Metar & Taf Last 4 Metars F.Rules Stats Wind Profile Meteogram Temp Stats Airport Information Weather charts Add Link Nearby VenuesMetar ALERT Operation Metar Decoded Social comments